Aviation Digital Data Service (ADDS)

Output produced by METARs form (0656 UTC 27 February 2020)
found at http://www.aviationweather.gov/metar/data/
 
METAR text: RKPC 270600Z 06013KT 9999 SCT025 12/05 Q1026 NOSIG
Conditions at: RKPC (JEJU INTL AIRPO , KR) observed 0600 UTC 27 February 2020
Temperature: 12.0°C (54°F)
Dewpoint: 5.0°C (41°F) [RH = 62%]
Pressure (altimeter): 30.30 inches Hg (1026.0 mb)
Winds: from the ENE (60 degrees) at 15 MPH (13 knots; 6.7 m/s)
Visibility: 6 or more miles (10+ km)
Ceiling: at least 12,000 feet AGL
Clouds: scattered clouds at 2500 feet AGL
Weather: no significant weather observed at this time

METAR text: RKPC 270500Z 04010KT 360V070 9999 BKN025 11/06 Q1027 NOSIG
Conditions at: RKPC (JEJU INTL AIRPO , KR) observed 0500 UTC 27 February 2020
Temperature: 11.0°C (52°F)
Dewpoint: 6.0°C (43°F) [RH = 71%]
Pressure (altimeter): 30.32 inches Hg (1027.0 mb)
Winds: from the NE (40 degrees) at 12 MPH (10 knots; 5.1 m/s)
Visibility: 6 or more miles (10+ km)
Ceiling: 2500 feet AGL
Clouds: broken clouds at 2500 feet AGL
Weather: no significant weather observed at this time

METAR text: RKPC 270400Z 05011KT 020V080 9999 BKN025 12/06 Q1027 NOSIG
Conditions at: RKPC (JEJU INTL AIRPO , KR) observed 0400 UTC 27 February 2020
Temperature: 12.0°C (54°F)
Dewpoint: 6.0°C (43°F) [RH = 67%]
Pressure (altimeter): 30.32 inches Hg (1027.0 mb)
Winds: from the NE (50 degrees) at 13 MPH (11 knots; 5.7 m/s)
Visibility: 6 or more miles (10+ km)
Ceiling: 2500 feet AGL
Clouds: broken clouds at 2500 feet AGL
Weather: no significant weather observed at this time

METAR text: RKPC 270300Z 06007KT 030V090 9999 BKN025 11/05 Q1028 NOSIG
Conditions at: RKPC (JEJU INTL AIRPO , KR) observed 0300 UTC 27 February 2020
Temperature: 11.0°C (52°F)
Dewpoint: 5.0°C (41°F) [RH = 66%]
Pressure (altimeter): 30.35 inches Hg (1028.0 mb)
Winds: from the ENE (60 degrees) at 8 MPH (7 knots; 3.6 m/s)
Visibility: 6 or more miles (10+ km)
Ceiling: 2500 feet AGL
Clouds: broken clouds at 2500 feet AGL
Weather: no significant weather observed at this time

METAR text: RKPC 270200Z 13007KT 100V160 9999 BKN025 10/03 Q1028 NOSIG
Conditions at: RKPC (JEJU INTL AIRPO , KR) observed 0200 UTC 27 February 2020
Temperature: 10.0°C (50°F)
Dewpoint: 3.0°C (37°F) [RH = 62%]
Pressure (altimeter): 30.35 inches Hg (1028.0 mb)
Winds: from the SE (130 degrees) at 8 MPH (7 knots; 3.6 m/s)
Visibility: 6 or more miles (10+ km)
Ceiling: 2500 feet AGL
Clouds: broken clouds at 2500 feet AGL
Weather: no significant weather observed at this time

METAR text: RKPC 270100Z 11006KT 080V140 9999 BKN025 09/02 Q1028 NOSIG
Conditions at: RKPC (JEJU INTL AIRPO , KR) observed 0100 UTC 27 February 2020
Temperature: 9.0°C (48°F)
Dewpoint: 2.0°C (36°F) [RH = 61%]
Pressure (altimeter): 30.35 inches Hg (1028.0 mb)
Winds: from the ESE (110 degrees) at 7 MPH (6 knots; 3.1 m/s)
Visibility: 6 or more miles (10+ km)
Ceiling: 2500 feet AGL
Clouds: broken clouds at 2500 feet AGL
Weather: no significant weather observed at this time

METAR text: RKPC 270000Z 12003KT 050V170 9999 BKN025 08/02 Q1028 NOSIG
Conditions at: RKPC (JEJU INTL AIRPO , KR) observed 0000 UTC 27 February 2020
Temperature: 8.0°C (46°F)
Dewpoint: 2.0°C (36°F) [RH = 66%]
Pressure (altimeter): 30.35 inches Hg (1028.0 mb)
Winds: from the ESE (120 degrees) at 3 MPH (3 knots; 1.5 m/s)
Visibility: 6 or more miles (10+ km)
Ceiling: 2500 feet AGL
Clouds: broken clouds at 2500 feet AGL
Weather: no significant weather observed at this time

METAR text: RKPC 262300Z 11005KT 070V160 9999 BKN025 07/02 Q1027 NOSIG
Conditions at: RKPC (JEJU INTL AIRPO , KR) observed 2300 UTC 26 February 2020
Temperature: 7.0°C (45°F)
Dewpoint: 2.0°C (36°F) [RH = 70%]
Pressure (altimeter): 30.32 inches Hg (1027.0 mb)
Winds: from the ESE (110 degrees) at 6 MPH (5 knots; 2.6 m/s)
Visibility: 6 or more miles (10+ km)
Ceiling: 2500 feet AGL
Clouds: broken clouds at 2500 feet AGL
Weather: no significant weather observed at this time

METAR text: RKPC 262200Z 08003KT 360V130 9999 SCT025 06/01 Q1027 NOSIG
Conditions at: RKPC (JEJU INTL AIRPO , KR) observed 2200 UTC 26 February 2020
Temperature: 6.0°C (43°F)
Dewpoint: 1.0°C (34°F) [RH = 70%]
Pressure (altimeter): 30.32 inches Hg (1027.0 mb)
Winds: from the E (80 degrees) at 3 MPH (3 knots; 1.5 m/s)
Visibility: 6 or more miles (10+ km)
Ceiling: at least 12,000 feet AGL
Clouds: scattered clouds at 2500 feet AGL
Weather: no significant weather observed at this time

METAR text: RKPC 262100Z 04003KT 330V140 9999 FEW025 07/01 Q1027 NOSIG
Conditions at: RKPC (JEJU INTL AIRPO , KR) observed 2100 UTC 26 February 2020
Temperature: 7.0°C (45°F)
Dewpoint: 1.0°C (34°F) [RH = 66%]
Pressure (altimeter): 30.32 inches Hg (1027.0 mb)
Winds: from the NE (40 degrees) at 3 MPH (3 knots; 1.5 m/s)
Visibility: 6 or more miles (10+ km)
Ceiling: at least 12,000 feet AGL
Clouds: few clouds at 2500 feet AGL
Weather: no significant weather observed at this time

METAR text: RKPC 262000Z 36004KT 330V030 9999 SCT025 07/01 Q1026 NOSIG
Conditions at: RKPC (JEJU INTL AIRPO , KR) observed 2000 UTC 26 February 2020
Temperature: 7.0°C (45°F)
Dewpoint: 1.0°C (34°F) [RH = 66%]
Pressure (altimeter): 30.30 inches Hg (1026.0 mb)
Winds: from the N (360 degrees) at 5 MPH (4 knots; 2.1 m/s)
Visibility: 6 or more miles (10+ km)
Ceiling: at least 12,000 feet AGL
Clouds: scattered clouds at 2500 feet AGL
Weather: no significant weather observed at this time

METAR text: RKPC 261900Z 33005KT 290V040 9999 FEW025 07/01 Q1026 NOSIG
Conditions at: RKPC (JEJU INTL AIRPO , KR) observed 1900 UTC 26 February 2020
Temperature: 7.0°C (45°F)
Dewpoint: 1.0°C (34°F) [RH = 66%]
Pressure (altimeter): 30.30 inches Hg (1026.0 mb)
Winds: from the NNW (330 degrees) at 6 MPH (5 knots; 2.6 m/s)
Visibility: 6 or more miles (10+ km)
Ceiling: at least 12,000 feet AGL
Clouds: few clouds at 2500 feet AGL
Weather: no significant weather observed at this time

METAR text: RKPC 261800Z 33005KT 270V010 9999 FEW025 07/01 Q1027 NOSIG
Conditions at: RKPC (JEJU INTL AIRPO , KR) observed 1800 UTC 26 February 2020
Temperature: 7.0°C (45°F)
Dewpoint: 1.0°C (34°F) [RH = 66%]
Pressure (altimeter): 30.32 inches Hg (1027.0 mb)
Winds: from the NNW (330 degrees) at 6 MPH (5 knots; 2.6 m/s)
Visibility: 6 or more miles (10+ km)
Ceiling: at least 12,000 feet AGL
Clouds: few clouds at 2500 feet AGL
Weather: no significant weather observed at this time

METAR text: RKPC 261700Z 33005KT 300V360 9999 FEW025 07/M01 Q1027 NOSIG
Conditions at: RKPC (JEJU INTL AIRPO , KR) observed 1700 UTC 26 February 2020
Temperature: 7.0°C (45°F)
Dewpoint: -1.0°C (30°F) [RH = 57%]
Pressure (altimeter): 30.32 inches Hg (1027.0 mb)
Winds: from the NNW (330 degrees) at 6 MPH (5 knots; 2.6 m/s)
Visibility: 6 or more miles (10+ km)
Ceiling: at least 12,000 feet AGL
Clouds: few clouds at 2500 feet AGL
Weather: no significant weather observed at this time

METAR text: RKPC 261600Z 33005KT 300V360 9999 FEW025 08/02 Q1027 NOSIG
Conditions at: RKPC (JEJU INTL AIRPO , KR) observed 1600 UTC 26 February 2020
Temperature: 8.0°C (46°F)
Dewpoint: 2.0°C (36°F) [RH = 66%]
Pressure (altimeter): 30.32 inches Hg (1027.0 mb)
Winds: from the NNW (330 degrees) at 6 MPH (5 knots; 2.6 m/s)
Visibility: 6 or more miles (10+ km)
Ceiling: at least 12,000 feet AGL
Clouds: few clouds at 2500 feet AGL
Weather: no significant weather observed at this time

METAR text: RKPC 261500Z 32005KT 270V350 9999 SCT025 08/02 Q1026 NOSIG
Conditions at: RKPC (JEJU INTL AIRPO , KR) observed 1500 UTC 26 February 2020
Temperature: 8.0°C (46°F)
Dewpoint: 2.0°C (36°F) [RH = 66%]
Pressure (altimeter): 30.30 inches Hg (1026.0 mb)
Winds: from the NW (320 degrees) at 6 MPH (5 knots; 2.6 m/s)
Visibility: 6 or more miles (10+ km)
Ceiling: at least 12,000 feet AGL
Clouds: scattered clouds at 2500 feet AGL
Weather: no significant weather observed at this time

METAR text: RKPC 261400Z 34005KT 300V020 9999 FEW015 SCT025 09/04 Q1027 NOSIG
Conditions at: RKPC (JEJU INTL AIRPO , KR) observed 1400 UTC 26 February 2020
Temperature: 9.0°C (48°F)
Dewpoint: 4.0°C (39°F) [RH = 71%]
Pressure (altimeter): 30.32 inches Hg (1027.0 mb)
Winds: from the NNW (340 degrees) at 6 MPH (5 knots; 2.6 m/s)
Visibility: 6 or more miles (10+ km)
Ceiling: at least 12,000 feet AGL
Clouds: few clouds at 1500 feet AGL
scattered clouds at 2500 feet AGL
Weather: no significant weather observed at this time

METAR text: RKPC 261300Z 33006KT 280V020 9999 FEW015 SCT025 09/05 Q1026 NOSIG
Conditions at: RKPC (JEJU INTL AIRPO , KR) observed 1300 UTC 26 February 2020
Temperature: 9.0°C (48°F)
Dewpoint: 5.0°C (41°F) [RH = 76%]
Pressure (altimeter): 30.30 inches Hg (1026.0 mb)
Winds: from the NNW (330 degrees) at 7 MPH (6 knots; 3.1 m/s)
Visibility: 6 or more miles (10+ km)
Ceiling: at least 12,000 feet AGL
Clouds: few clouds at 1500 feet AGL
scattered clouds at 2500 feet AGL
Weather: no significant weather observed at this time

METAR text: RKPC 261200Z 34004KT 9999 FEW025 10/05 Q1026 NOSIG
Conditions at: RKPC (JEJU INTL AIRPO , KR) observed 1200 UTC 26 February 2020
Temperature: 10.0°C (50°F)
Dewpoint: 5.0°C (41°F) [RH = 71%]
Pressure (altimeter): 30.30 inches Hg (1026.0 mb)
Winds: from the NNW (340 degrees) at 5 MPH (4 knots; 2.1 m/s)
Visibility: 6 or more miles (10+ km)
Ceiling: at least 12,000 feet AGL
Clouds: few clouds at 2500 feet AGL
Weather: no significant weather observed at this time

METAR text: RKPC 261100Z 35007KT 300V030 9999 SCT025 10/05 Q1025 NOSIG
Conditions at: RKPC (JEJU INTL AIRPO , KR) observed 1100 UTC 26 February 2020
Temperature: 10.0°C (50°F)
Dewpoint: 5.0°C (41°F) [RH = 71%]
Pressure (altimeter): 30.27 inches Hg (1025.0 mb)
Winds: from the N (350 degrees) at 8 MPH (7 knots; 3.6 m/s)
Visibility: 6 or more miles (10+ km)
Ceiling: at least 12,000 feet AGL
Clouds: scattered clouds at 2500 feet AGL
Weather: no significant weather observed at this time

METAR text: RKPC 261000Z 33006KT 300V020 9999 SCT025 BKN150 11/06 Q1024 NOSIG
Conditions at: RKPC (JEJU INTL AIRPO , KR) observed 1000 UTC 26 February 2020
Temperature: 11.0°C (52°F)
Dewpoint: 6.0°C (43°F) [RH = 71%]
Pressure (altimeter): 30.24 inches Hg (1024.0 mb)
Winds: from the NNW (330 degrees) at 7 MPH (6 knots; 3.1 m/s)
Visibility: 6 or more miles (10+ km)
Ceiling: 15000 feet AGL
Clouds: scattered clouds at 2500 feet AGL
broken clouds at 15000 feet AGL
Weather: no significant weather observed at this time

METAR text: RKPC 260900Z 33008KT 300V360 9999 BKN025 BKN150 11/07 Q1024 NOSIG
Conditions at: RKPC (JEJU INTL AIRPO , KR) observed 0900 UTC 26 February 2020
Temperature: 11.0°C (52°F)
Dewpoint: 7.0°C (45°F) [RH = 76%]
Pressure (altimeter): 30.24 inches Hg (1024.0 mb)
Winds: from the NNW (330 degrees) at 9 MPH (8 knots; 4.1 m/s)
Visibility: 6 or more miles (10+ km)
Ceiling: 2500 feet AGL
Clouds: broken clouds at 2500 feet AGL
broken clouds at 15000 feet AGL
Weather: no significant weather observed at this time

METAR text: RKPC 260800Z 33007KT 290V360 9999 FEW010 BKN025 OVC120 12/08 Q1023 NOSIG
Conditions at: RKPC (JEJU INTL AIRPO , KR) observed 0800 UTC 26 February 2020
Temperature: 12.0°C (54°F)
Dewpoint: 8.0°C (46°F) [RH = 76%]
Pressure (altimeter): 30.21 inches Hg (1023.0 mb)
Winds: from the NNW (330 degrees) at 8 MPH (7 knots; 3.6 m/s)
Visibility: 6 or more miles (10+ km)
Ceiling: 2500 feet AGL
Clouds: few clouds at 1000 feet AGL
broken clouds at 2500 feet AGL
overcast cloud deck at 12000 feet AGL
Weather: no significant weather observed at this time

METAR text: RKPC 260700Z 33006KT 290V010 9999 FEW010 BKN025 OVC120 12/08 Q1023 NOSIG
Conditions at: RKPC (JEJU INTL AIRPO , KR) observed 0700 UTC 26 February 2020
Temperature: 12.0°C (54°F)
Dewpoint: 8.0°C (46°F) [RH = 76%]
Pressure (altimeter): 30.21 inches Hg (1023.0 mb)
Winds: from the NNW (330 degrees) at 7 MPH (6 knots; 3.1 m/s)
Visibility: 6 or more miles (10+ km)
Ceiling: 2500 feet AGL
Clouds: few clouds at 1000 feet AGL
broken clouds at 2500 feet AGL
overcast cloud deck at 12000 feet AGL
Weather: no significant weather observed at this time

METAR text: RKPC 260600Z 36007KT 320V020 9999 FEW010 BKN025 OVC120 12/08 Q1022 NOSIG
Conditions at: RKPC (JEJU INTL AIRPO , KR) observed 0600 UTC 26 February 2020
Temperature: 12.0°C (54°F)
Dewpoint: 8.0°C (46°F) [RH = 76%]
Pressure (altimeter): 30.18 inches Hg (1022.0 mb)
Winds: from the N (360 degrees) at 8 MPH (7 knots; 3.6 m/s)
Visibility: 6 or more miles (10+ km)
Ceiling: 2500 feet AGL
Clouds: few clouds at 1000 feet AGL
broken clouds at 2500 feet AGL
overcast cloud deck at 12000 feet AGL
Weather: no significant weather observed at this time

METAR text: RKPC 260500Z 01007KT 340V040 9999 FEW010 BKN025 OVC100 12/09 Q1022 NOSIG
Conditions at: RKPC (JEJU INTL AIRPO , KR) observed 0500 UTC 26 February 2020
Temperature: 12.0°C (54°F)
Dewpoint: 9.0°C (48°F) [RH = 82%]
Pressure (altimeter): 30.18 inches Hg (1022.0 mb)
Winds: from the N (10 degrees) at 8 MPH (7 knots; 3.6 m/s)
Visibility: 6 or more miles (10+ km)
Ceiling: 2500 feet AGL
Clouds: few clouds at 1000 feet AGL
broken clouds at 2500 feet AGL
overcast cloud deck at 10000 feet AGL
Weather: no significant weather observed at this time

METAR text: RKPC 260400Z 02007KT 350V050 9999 FEW010 BKN025 OVC100 12/09 Q1022 NOSIG
Conditions at: RKPC (JEJU INTL AIRPO , KR) observed 0400 UTC 26 February 2020
Temperature: 12.0°C (54°F)
Dewpoint: 9.0°C (48°F) [RH = 82%]
Pressure (altimeter): 30.18 inches Hg (1022.0 mb)
Winds: from the NNE (20 degrees) at 8 MPH (7 knots; 3.6 m/s)
Visibility: 6 or more miles (10+ km)
Ceiling: 2500 feet AGL
Clouds: few clouds at 1000 feet AGL
broken clouds at 2500 feet AGL
overcast cloud deck at 10000 feet AGL
Weather: no significant weather observed at this time

METAR text: RKPC 260300Z 03007KT 340V050 9999 FEW010 BKN025 OVC100 12/09 Q1022 NOSIG
Conditions at: RKPC (JEJU INTL AIRPO , KR) observed 0300 UTC 26 February 2020
Temperature: 12.0°C (54°F)
Dewpoint: 9.0°C (48°F) [RH = 82%]
Pressure (altimeter): 30.18 inches Hg (1022.0 mb)
Winds: from the NNE (30 degrees) at 8 MPH (7 knots; 3.6 m/s)
Visibility: 6 or more miles (10+ km)
Ceiling: 2500 feet AGL
Clouds: few clouds at 1000 feet AGL
broken clouds at 2500 feet AGL
overcast cloud deck at 10000 feet AGL
Weather: no significant weather observed at this time

METAR text: RKPC 260200Z 04008KT 360V060 9999 FEW010 BKN025 OVC100 12/09 Q1023 NOSIG
Conditions at: RKPC (JEJU INTL AIRPO , KR) observed 0200 UTC 26 February 2020
Temperature: 12.0°C (54°F)
Dewpoint: 9.0°C (48°F) [RH = 82%]
Pressure (altimeter): 30.21 inches Hg (1023.0 mb)
Winds: from the NE (40 degrees) at 9 MPH (8 knots; 4.1 m/s)
Visibility: 6 or more miles (10+ km)
Ceiling: 2500 feet AGL
Clouds: few clouds at 1000 feet AGL
broken clouds at 2500 feet AGL
overcast cloud deck at 10000 feet AGL
Weather: no significant weather observed at this time

METAR text: RKPC 260100Z 06010KT 9999 FEW010 BKN025 OVC100 12/08 Q1023 NOSIG
Conditions at: RKPC (JEJU INTL AIRPO , KR) observed 0100 UTC 26 February 2020
Temperature: 12.0°C (54°F)
Dewpoint: 8.0°C (46°F) [RH = 76%]
Pressure (altimeter): 30.21 inches Hg (1023.0 mb)
Winds: from the ENE (60 degrees) at 12 MPH (10 knots; 5.1 m/s)
Visibility: 6 or more miles (10+ km)
Ceiling: 2500 feet AGL
Clouds: few clouds at 1000 feet AGL
broken clouds at 2500 feet AGL
overcast cloud deck at 10000 feet AGL
Weather: no significant weather observed at this time

METAR text: RKPC 260000Z 08010KT 050V110 9999 FEW010 BKN025 OVC100 12/09 Q1022 NOSIG
Conditions at: RKPC (JEJU INTL AIRPO , KR) observed 0000 UTC 26 February 2020
Temperature: 12.0°C (54°F)
Dewpoint: 9.0°C (48°F) [RH = 82%]
Pressure (altimeter): 30.18 inches Hg (1022.0 mb)
Winds: from the E (80 degrees) at 12 MPH (10 knots; 5.1 m/s)
Visibility: 6 or more miles (10+ km)
Ceiling: 2500 feet AGL
Clouds: few clouds at 1000 feet AGL
broken clouds at 2500 feet AGL
overcast cloud deck at 10000 feet AGL
Weather: no significant weather observed at this time

METAR text: RKPC 252300Z 10009KT 9000 -RA FEW010 BKN025 12/09 Q1021 NOSIG
Conditions at: RKPC (JEJU INTL AIRPO , KR) observed 2300 UTC 25 February 2020
Temperature: 12.0°C (54°F)
Dewpoint: 9.0°C (48°F) [RH = 82%]
Pressure (altimeter): 30.15 inches Hg (1021.0 mb)
Winds: from the E (100 degrees) at 10 MPH (9 knots; 4.6 m/s)
Visibility: 6 miles ( 9 km)
Ceiling: 2500 feet AGL
Clouds: few clouds at 1000 feet AGL
broken clouds at 2500 feet AGL
Weather: -RA  (light rain)

METAR text: RKPC 252200Z 10010KT 9000 -RA BKN005 OVC015 12/10 Q1020 NOSIG
Conditions at: RKPC (JEJU INTL AIRPO , KR) observed 2200 UTC 25 February 2020
Temperature: 12.0°C (54°F)
Dewpoint: 10.0°C (50°F) [RH = 88%]
Pressure (altimeter): 30.12 inches Hg (1020.0 mb)
Winds: from the E (100 degrees) at 12 MPH (10 knots; 5.1 m/s)
Visibility: 6 miles ( 9 km)
Ceiling: 500 feet AGL
Clouds: broken clouds at 500 feet AGL
overcast cloud deck at 1500 feet AGL
Weather: -RA  (light rain)

METAR text: RKPC 252100Z 11009KT 9000 -RA BKN005 OVC015 12/10 Q1019 NOSIG
Conditions at: RKPC (JEJU INTL AIRPO , KR) observed 2100 UTC 25 February 2020
Temperature: 12.0°C (54°F)
Dewpoint: 10.0°C (50°F) [RH = 88%]
Pressure (altimeter): 30.09 inches Hg (1019.0 mb)
Winds: from the ESE (110 degrees) at 10 MPH (9 knots; 4.6 m/s)
Visibility: 6 miles ( 9 km)
Ceiling: 500 feet AGL
Clouds: broken clouds at 500 feet AGL
overcast cloud deck at 1500 feet AGL
Weather: -RA  (light rain)

METAR text: RKPC 252000Z 10006KT 7000 BKN005 OVC020 11/10 Q1018 NOSIG
Conditions at: RKPC (JEJU INTL AIRPO , KR) observed 2000 UTC 25 February 2020
Temperature: 11.0°C (52°F)
Dewpoint: 10.0°C (50°F) [RH = 94%]
Pressure (altimeter): 30.06 inches Hg (1018.0 mb)
Winds: from the E (100 degrees) at 7 MPH (6 knots; 3.1 m/s)
Visibility: 4 miles ( 7 km)
Ceiling: 500 feet AGL
Clouds: broken clouds at 500 feet AGL
overcast cloud deck at 2000 feet AGL
Weather: no significant weather observed at this time

METAR text: RKPC 251900Z 06002KT 8000 -DZ BKN005 OVC020 11/09 Q1018 NOSIG
Conditions at: RKPC (JEJU INTL AIRPO , KR) observed 1900 UTC 25 February 2020
Temperature: 11.0°C (52°F)
Dewpoint: 9.0°C (48°F) [RH = 87%]
Pressure (altimeter): 30.06 inches Hg (1018.0 mb)
Winds: from the ENE (60 degrees) at 2 MPH (2 knots; 1.0 m/s)
Visibility: 5 miles ( 8 km)
Ceiling: 500 feet AGL
Clouds: broken clouds at 500 feet AGL
overcast cloud deck at 2000 feet AGL
Weather: -DZ  (light drizzle)

Forecast for: RKPC (JEJU INTL AIRPO , KR)
Text: TAF RKPC 270500Z 2706/2812 06010KT 9999 BKN030 TN07/2720Z TX12/2804Z
Forecast period: 0600 to 1000 UTC 27 February 2020
Forecast type: FROM: standard forecast or significant change
Winds: from the ENE (60 degrees) at 12 MPH (10 knots; 5.1 m/s)
Visibility: 6 or more miles 10+ km)
Ceiling: 3000 feet AGL
Clouds: broken clouds at 3000 feet AGL
Weather: no significant weather forecast for this period
Text: BECMG 2710/2711 12008KT SCT030 BKN150
Forecast period: 1000 to 1900 UTC 27 February 2020
Forecast type: BECOMING: Conditions expected to become as follows by 1100 UTC 27 February 2020
Winds: from the ESE (120 degrees) at 9 MPH (8 knots; 4.1 m/s)
Visibility: 6 or more miles 10+ km)
Ceiling: 15000 feet AGL
Clouds: scattered clouds at 3000 feet AGL
broken clouds at 15000 feet AGL
Weather: no significant weather forecast for this period
Text: BECMG 2719/2720 18007KT FEW015 BKN030 OVC100
Forecast period: 1900 UTC 27 February 2020 to 0000 UTC 28 February 2020
Forecast type: BECOMING: Conditions expected to become as follows by 2000 UTC 27 February 2020
Winds: from the S (180 degrees) at 8 MPH (7 knots; 3.6 m/s)
Visibility: 6 or more miles 10+ km)
Ceiling: 3000 feet AGL
Clouds: few clouds at 1500 feet AGL
broken clouds at 3000 feet AGL
overcast cloud deck at 10000 feet AGL
Weather: no significant weather forecast for this period
Text: BECMG 2800/2801 12007KT
Forecast period: 0000 to 0500 UTC 28 February 2020
Forecast type: BECOMING: Conditions expected to become as follows by 0100 UTC 28 February 2020
Winds: from the ESE (120 degrees) at 8 MPH (7 knots; 3.6 m/s)
Visibility: 6 or more miles 10+ km)
Ceiling: 3000 feet AGL
Clouds: few clouds at 1500 feet AGL
broken clouds at 3000 feet AGL
overcast cloud deck at 10000 feet AGL
Weather: no significant weather forecast for this period
Text: BECMG 2805/2806 09010KT 6000 -RA
Forecast period: 0500 to 1200 UTC 28 February 2020
Forecast type: BECOMING: Conditions expected to become as follows by 0600 UTC 28 February 2020
Winds: from the E (90 degrees) at 12 MPH (10 knots; 5.1 m/s)
Visibility: 4 miles (6 km)
Ceiling: 3000 feet AGL
Clouds: few clouds at 1500 feet AGL
broken clouds at 3000 feet AGL
overcast cloud deck at 10000 feet AGL
Weather: -RA  (light rain)